Time;durP1;ratioP1;P1;durP2;ratioP2;P2;SDS_P1;SDS_P2;PMS_P1;PMS_P2;Temp;Humidity;BMP_temperature;BMP_pressure;BME280_temperature;BME280_humidity;BME280_pressure;Samples;Min_cycle;Max_cycle;Signal;HPM_P1;HPM_P2
2023/11/27 00:04:40;;;;;;;;;;;;;;;0.78;100.00;95356.81;10593013;27;3982;-73
2023/11/27 00:09:42;;;;;;;;;;;;;;;0.75;100.00;95348.50;10584454;27;2932;-73
2023/11/27 00:14:45;;;;;;;;;;;;;;;0.78;100.00;95356.00;10587511;27;2860;-72
2023/11/27 00:19:48;;;;;;;;;;;;;;;0.86;100.00;95347.75;10586112;27;2802;-72
2023/11/27 00:24:50;;;;;;;;;;;;;;;0.90;100.00;95345.47;10589083;27;2783;-74
2023/11/27 00:29:54;;;;;;;;;;;;;;;0.91;100.00;95345.25;10589907;27;3278;-75
2023/11/27 00:34:57;;;;;;;;;;;;;;;0.87;100.00;95333.50;10588145;27;2784;-72
2023/11/27 00:40:00;;;;;;;;;;;;;;;0.87;100.00;95330.84;10593304;27;2896;-72
2023/11/27 00:45:05;;;;;;;;;;;;;;;0.88;100.00;95323.72;10572056;27;2805;-71
2023/11/27 00:50:12;;;;;;;;;;;;;;;0.84;100.00;95325.22;10590084;27;2842;-72
2023/11/27 00:55:14;;;;;;;;;;;;;;;0.89;100.00;95320.84;10590549;27;2844;-71
2023/11/27 01:00:17;;;;;;;;;;;;;;;0.90;100.00;95316.38;10591776;27;3038;-74
2023/11/27 01:05:20;;;;;;;;;;;;;;;0.96;100.00;95315.47;10585068;27;2919;-74
2023/11/27 01:10:23;;;;;;;;;;;;;;;1.03;100.00;95309.06;10583686;27;3023;-74
2023/11/27 01:15:27;;;;;;;;;;;;;;;1.11;100.00;95301.81;10589126;27;2894;-74
2023/11/27 01:20:30;;;;;;;;;;;;;;;1.14;100.00;95304.81;10584676;27;3472;-71
2023/11/27 01:25:33;;;;;;;;;;;;;;;1.17;100.00;95300.91;10596589;27;2820;-74
2023/11/27 01:30:37;;;;;;;;;;;;;;;1.15;100.00;95292.41;10592446;27;2763;-75
2023/11/27 01:35:40;;;;;;;;;;;;;;;1.09;100.00;95280.88;10591079;27;2985;-75
2023/11/27 01:40:45;;;;;;;;;;;;;;;1.16;100.00;95280.78;10592689;27;2909;-73
2023/11/27 01:45:48;;;;;;;;;;;;;;;1.05;100.00;95283.16;10588263;27;2847;-77
2023/11/27 01:50:51;;;;;;;;;;;;;;;1.02;100.00;95273.03;10590261;27;2846;-76
2023/11/27 01:55:54;;;;;;;;;;;;;;;0.99;100.00;95272.66;10584160;27;2843;-72
2023/11/27 02:00:58;;;;;;;;;;;;;;;0.92;100.00;95272.75;10584571;27;3262;-75
2023/11/27 02:06:02;;;;;;;;;;;;;;;0.92;100.00;95269.31;10584812;27;2787;-72
2023/11/27 02:11:05;;;;;;;;;;;;;;;0.95;100.00;95266.19;10581895;27;2842;-77
2023/11/27 02:16:08;;;;;;;;;;;;;;;0.94;100.00;95261.94;10585959;27;2871;-72
2023/11/27 02:21:12;;;;;;;;;;;;;;;0.94;100.00;95252.16;10598122;27;3095;-74
2023/11/27 02:26:17;;;;;;;;;;;;;;;0.93;100.00;95252.41;10595020;27;3150;-74
2023/11/27 02:31:20;;;;;;;;;;;;;;;0.94;100.00;95249.53;10598906;27;2830;-71
2023/11/27 02:36:25;;;;;;;;;;;;;;;1.00;100.00;95248.63;10602149;27;2963;-71
2023/11/27 02:41:28;;;;;;;;;;;;;;;1.08;100.00;95240.38;10598999;27;2941;-73
2023/11/27 02:46:32;;;;;;;;;;;;;;;1.10;100.00;95241.97;10600847;27;2897;-70
2023/11/27 02:51:36;;;;;;;;;;;;;;;1.17;100.00;95237.38;10595789;27;2848;-71
2023/11/27 02:56:38;;;;;;;;;;;;;;;1.24;100.00;95243.38;10591674;27;3218;-71
2023/11/27 03:01:41;;;;;;;;;;;;;;;1.21;100.00;95235.88;10597295;27;2820;-74
2023/11/27 03:06:44;;;;;;;;;;;;;;;1.25;100.00;95227.25;10596486;27;3491;-71
2023/11/27 03:11:48;;;;;;;;;;;;;;;1.24;100.00;95220.34;10593949;27;2859;-74
2023/11/27 03:16:51;;;;;;;;;;;;;;;1.29;100.00;95214.38;10594826;27;2867;-70
2023/11/27 03:21:54;;;;;;;;;;;;;;;1.29;100.00;95207.25;10589295;27;2995;-74
2023/11/27 03:26:58;;;;;;;;;;;;;;;1.39;100.00;95192.63;10592603;27;2900;-73
2023/11/27 03:32:00;;;;;;;;;;;;;;;1.45;100.00;95189.84;10595459;27;2944;-73
2023/11/27 03:37:04;;;;;;;;;;;;;;;1.42;100.00;95181.56;10594204;27;3016;-72
2023/11/27 03:42:07;;;;;;;;;;;;;;;1.42;100.00;95169.13;10590188;27;2873;-71
2023/11/27 03:47:11;;;;;;;;;;;;;;;1.35;100.00;95163.16;10594776;27;4784;-71
2023/11/27 03:52:13;;;;;;;;;;;;;;;1.42;100.00;95152.44;10590014;27;2857;-70
2023/11/27 03:57:18;;;;;;;;;;;;;;;1.33;100.00;95144.81;10593971;27;2761;-74
2023/11/27 04:02:23;;;;;;;;;;;;;;;1.37;100.00;95137.22;10577278;27;2963;-72
2023/11/27 04:07:27;;;;;;;;;;;;;;;1.33;100.00;95130.78;10595240;27;2851;-73
2023/11/27 04:12:32;;;;;;;;;;;;;;;1.34;100.00;95130.56;10590861;27;2894;-72
2023/11/27 04:17:36;;;;;;;;;;;;;;;1.34;100.00;95114.69;10592862;27;2921;-72
2023/11/27 04:22:40;;;;;;;;;;;;;;;1.28;100.00;95112.16;10577398;27;2904;-72
2023/11/27 04:27:43;;;;;;;;;;;;;;;1.19;100.00;95092.34;10592986;27;2861;-73
2023/11/27 04:32:45;;;;;;;;;;;;;;;1.13;100.00;95091.44;10588328;27;2836;-71
2023/11/27 04:37:48;;;;;;;;;;;;;;;1.11;100.00;95074.97;10579581;27;3276;-71
2023/11/27 04:42:51;;;;;;;;;;;;;;;1.11;100.00;95068.88;10581351;27;2939;-71
2023/11/27 04:47:53;;;;;;;;;;;;;;;1.05;100.00;95055.53;10567309;27;4602;-75
2023/11/27 04:52:57;;;;;;;;;;;;;;;1.05;100.00;95042.28;10589711;27;2874;-76
2023/11/27 04:58:00;;;;;;;;;;;;;;;0.99;100.00;95029.19;10584542;27;2880;-76
2023/11/27 05:03:04;;;;;;;;;;;;;;;0.93;100.00;95035.41;10580344;27;2938;-72
2023/11/27 05:08:06;;;;;;;;;;;;;;;0.96;100.00;95022.53;10589450;27;2828;-75
2023/11/27 05:13:09;;;;;;;;;;;;;;;0.92;100.00;95034.59;10587543;27;2860;-72
2023/11/27 05:18:12;;;;;;;;;;;;;;;0.98;100.00;95038.97;10590139;27;3063;-77
2023/11/27 05:23:15;;;;;;;;;;;;;;;0.90;100.00;95028.75;10590928;27;2797;-78
2023/11/27 05:28:18;;;;;;;;;;;;;;;0.94;100.00;95016.66;10581695;27;2821;-78
2023/11/27 05:33:22;;;;;;;;;;;;;;;0.95;100.00;95017.44;10584108;27;2847;-72
2023/11/27 05:38:28;;;;;;;;;;;;;;;0.93;100.00;95012.38;10584262;27;2829;-70
2023/11/27 05:43:31;;;;;;;;;;;;;;;0.89;100.00;95013.91;10586926;27;4452;-75
2023/11/27 05:48:34;;;;;;;;;;;;;;;0.86;100.00;95019.66;10584884;27;3074;-74
2023/11/27 05:53:37;;;;;;;;;;;;;;;0.76;100.00;95014.13;10599514;27;2912;-74
2023/11/27 05:58:40;;;;;;;;;;;;;;;0.73;100.00;95004.81;10586320;27;2893;-74
2023/11/27 06:03:45;;;;;;;;;;;;;;;0.72;100.00;95002.41;10599381;27;3209;-72
2023/11/27 06:08:49;;;;;;;;;;;;;;;0.73;100.00;95004.00;10601078;27;2908;-73
2023/11/27 06:13:52;;;;;;;;;;;;;;;0.65;100.00;94993.78;10600864;27;3004;-75
2023/11/27 06:18:55;;;;;;;;;;;;;;;0.60;100.00;94983.91;10596808;27;2934;-73
2023/11/27 06:23:58;;;;;;;;;;;;;;;0.60;100.00;94983.09;10600131;27;2882;-74
2023/11/27 06:29:00;;;;;;;;;;;;;;;0.71;100.00;94977.78;10600989;27;2820;-71
2023/11/27 06:34:04;;;;;;;;;;;;;;;0.77;100.00;94974.22;10592085;27;2896;-72
2023/11/27 06:39:12;;;;;;;;;;;;;;;0.91;100.00;94980.06;10590585;27;2867;-72
2023/11/27 06:44:17;;;;;;;;;;;;;;;0.92;100.00;94971.09;10601358;27;4649;-70
2023/11/27 06:49:20;;;;;;;;;;;;;;;0.94;100.00;94955.78;10596504;27;2874;-71
2023/11/27 06:54:23;;;;;;;;;;;;;;;1.04;100.00;94965.78;10596688;27;3119;-73
2023/11/27 06:59:26;;;;;;;;;;;;;;;1.07;100.00;94942.28;10593727;27;2812;-72
2023/11/27 07:04:29;;;;;;;;;;;;;;;1.00;100.00;94941.63;10592719;27;2870;-75
2023/11/27 07:09:32;;;;;;;;;;;;;;;1.00;100.00;94951.41;10599503;27;2900;-71
2023/11/27 07:14:37;;;;;;;;;;;;;;;1.02;100.00;94949.34;10595895;27;2847;-70
2023/11/27 07:19:54;;;;;;;;;;;;;;;1.16;100.00;94931.34;10590355;27;2957;-72
2023/11/27 07:24:57;;;;;;;;;;;;;;;1.24;100.00;94923.03;10601562;27;2826;-73
2023/11/27 07:30:01;;;;;;;;;;;;;;;1.35;100.00;94911.59;10598814;27;2839;-73
2023/11/27 07:35:04;;;;;;;;;;;;;;;1.39;100.00;94912.72;10572355;27;2876;-75
2023/11/27 07:40:09;;;;;;;;;;;;;;;1.48;100.00;94910.50;10589883;27;3179;-73
2023/11/27 07:45:12;;;;;;;;;;;;;;;1.52;100.00;94907.13;10591450;27;4700;-71
2023/11/27 07:50:15;;;;;;;;;;;;;;;1.57;100.00;94904.56;10585030;27;2879;-72
2023/11/27 07:55:19;;;;;;;;;;;;;;;1.76;100.00;94897.19;10594075;27;2854;-72
2023/11/27 08:00:26;;;;;;;;;;;;;;;1.94;100.00;94898.03;10582211;27;2800;-72
2023/11/27 08:05:29;;;;;;;;;;;;;;;2.07;100.00;94903.00;10589690;27;2882;-73
2023/11/27 08:10:35;;;;;;;;;;;;;;;2.11;100.00;94904.13;10586456;27;2811;-73
2023/11/27 08:15:38;;;;;;;;;;;;;;;2.10;100.00;94892.72;10584678;27;2852;-73
2023/11/27 08:20:46;;;;;;;;;;;;;;;2.34;100.00;94898.63;10593635;27;2855;-75
2023/11/27 08:25:48;;;;;;;;;;;;;;;2.76;100.00;94884.88;10591121;27;2800;-74
2023/11/27 08:30:51;;;;;;;;;;;;;;;2.81;100.00;94884.97;10585317;27;2917;-73
2023/11/27 08:35:57;;;;;;;;;;;;;;;2.92;100.00;94877.91;10569697;27;2842;-72
2023/11/27 08:41:02;;;;;;;;;;;;;;;3.18;100.00;94869.19;10587796;27;2834;-72
2023/11/27 08:46:05;;;;;;;;;;;;;;;3.39;100.00;94861.44;10585703;27;3113;-71
2023/11/27 08:51:25;;;;;;;;;;;;;;;3.64;100.00;94868.84;10581249;27;2825;-71
2023/11/27 08:56:33;;;;;;;;;;;;;;;3.76;100.00;94866.84;10584494;27;2843;-69
2023/11/27 09:01:44;;;;;;;;;;;;;;;3.85;100.00;94853.88;10584570;27;2803;-72
2023/11/27 09:06:54;;;;;;;;;;;;;;;4.13;100.00;94848.22;10567495;27;3083;-70
2023/11/27 09:11:58;;;;;;;;;;;;;;;4.21;100.00;94842.44;10588486;27;2985;-74
2023/11/27 09:17:00;;;;;;;;;;;;;;;4.24;100.00;94841.13;10576283;27;3423;-71
2023/11/27 09:22:04;;;;;;;;;;;;;;;4.12;100.00;94833.31;10581517;27;2911;-74
2023/11/27 09:27:07;;;;;;;;;;;;;;;4.04;100.00;94823.97;10583187;27;2858;-73
2023/11/27 09:32:10;;;;;;;;;;;;;;;3.88;100.00;94821.44;10608028;27;3259;-70
2023/11/27 09:37:16;;;;;;;;;;;;;;;4.06;100.00;94818.41;10596588;27;2866;-74
2023/11/27 09:42:20;;;;;;;;;;;;;;;4.13;100.00;94808.34;10588750;27;2807;-73
2023/11/27 09:47:24;;;;;;;;;;;;;;;4.22;100.00;94790.84;10575866;27;2816;-71
2023/11/27 09:52:31;;;;;;;;;;;;;;;4.53;100.00;94783.03;10597528;27;2830;-71
2023/11/27 09:57:34;;;;;;;;;;;;;;;4.75;100.00;94770.31;10600268;27;3171;-71
2023/11/27 10:02:37;;;;;;;;;;;;;;;4.76;100.00;94758.59;10600119;27;2952;-73
2023/11/27 10:07:40;;;;;;;;;;;;;;;4.78;100.00;94753.84;10594663;27;2840;-73
2023/11/27 10:12:44;;;;;;;;;;;;;;;5.00;100.00;94737.63;10589485;27;3181;-74
2023/11/27 10:17:53;;;;;;;;;;;;;;;4.75;100.00;94730.38;10605786;27;2937;-72
2023/11/27 10:22:58;;;;;;;;;;;;;;;4.86;100.00;94710.72;10606949;27;2869;-77
2023/11/27 10:28:09;;;;;;;;;;;;;;;5.16;100.00;94714.50;10609654;27;2810;-74
2023/11/27 10:33:12;;;;;;;;;;;;;;;5.02;100.00;94708.06;10601797;27;2782;-73
2023/11/27 10:38:24;;;;;;;;;;;;;;;5.38;100.00;94712.38;10578603;27;3201;-70
2023/11/27 10:43:30;;;;;;;;;;;;;;;5.26;100.00;94679.06;10592626;27;4527;-72
2023/11/27 10:48:36;;;;;;;;;;;;;;;5.46;100.00;94616.94;10619697;27;2841;-71
2023/11/27 10:53:47;;;;;;;;;;;;;;;5.93;100.00;94627.28;10592227;27;2871;-72
2023/11/27 10:58:51;;;;;;;;;;;;;;;6.06;100.00;94633.88;10589840;27;2942;-75
2023/11/27 11:03:56;;;;;;;;;;;;;;;5.77;100.00;94609.69;10592242;27;2858;-72
2023/11/27 11:09:03;;;;;;;;;;;;;;;5.65;100.00;94597.44;10597909;27;2882;-72
2023/11/27 11:14:07;;;;;;;;;;;;;;;5.91;100.00;94584.84;10592305;27;2933;-72
2023/11/27 11:24:33;;;;;;;;;;;;;;;6.25;100.00;94543.34;10600765;27;2909;-72
2023/11/27 11:29:43;;;;;;;;;;;;;;;6.55;100.00;94537.00;10595524;27;2823;-72
2023/11/27 11:34:47;;;;;;;;;;;;;;;6.29;100.00;94518.47;10589841;27;2916;-71
2023/11/27 11:39:53;;;;;;;;;;;;;;;6.30;100.00;94490.75;10587922;27;3094;-73
2023/11/27 11:44:57;;;;;;;;;;;;;;;6.05;100.00;94490.91;10593422;27;4750;-72
2023/11/27 11:50:01;;;;;;;;;;;;;;;6.42;100.00;94493.84;10590297;27;2844;-73
2023/11/27 11:55:06;;;;;;;;;;;;;;;6.27;100.00;94495.81;10588291;27;3277;-73
2023/11/27 12:00:19;;;;;;;;;;;;;;;6.66;100.00;94507.28;10589049;27;2817;-72
2023/11/27 12:05:25;;;;;;;;;;;;;;;6.66;100.00;94493.13;10588841;27;3108;-72
2023/11/27 12:10:31;;;;;;;;;;;;;;;6.47;100.00;94477.00;10593539;27;2923;-72
2023/11/27 12:15:34;;;;;;;;;;;;;;;6.70;100.00;94454.13;10586852;27;3053;-76
2023/11/27 12:20:37;;;;;;;;;;;;;;;6.64;100.00;94455.22;10586772;27;2814;-73
2023/11/27 12:25:43;;;;;;;;;;;;;;;6.65;100.00;94446.16;10594264;27;2828;-71
2023/11/27 12:30:47;;;;;;;;;;;;;;;6.55;100.00;94441.69;10587116;27;2885;-73
2023/11/27 12:35:51;;;;;;;;;;;;;;;6.33;100.00;94420.78;10589073;27;2839;-76
2023/11/27 12:40:54;;;;;;;;;;;;;;;6.46;100.00;94401.44;10588838;27;2864;-72
2023/11/27 12:45:58;;;;;;;;;;;;;;;6.87;100.00;94401.06;10585418;27;4669;-70
2023/11/27 12:51:01;;;;;;;;;;;;;;;6.89;100.00;94388.22;10580944;27;2850;-71
2023/11/27 12:56:04;;;;;;;;;;;;;;;6.61;100.00;94378.34;10581867;27;2862;-72
2023/11/27 13:01:11;;;;;;;;;;;;;;;6.18;100.00;94375.56;10581256;27;2861;-70
2023/11/27 13:06:14;;;;;;;;;;;;;;;6.17;100.00;94360.59;10584437;27;3189;-73
2023/11/27 13:11:26;;;;;;;;;;;;;;;6.06;100.00;94332.44;10584425;27;2797;-74
2023/11/27 13:16:30;;;;;;;;;;;;;;;5.89;100.00;94328.25;10588609;27;3273;-72
2023/11/27 13:21:33;;;;;;;;;;;;;;;5.79;100.00;94336.38;10588665;27;3417;-72
2023/11/27 13:26:38;;;;;;;;;;;;;;;5.79;100.00;94328.38;10591828;27;2864;-72
2023/11/27 13:31:42;;;;;;;;;;;;;;;5.76;100.00;94317.44;10585629;27;2904;-71
2023/11/27 13:36:51;;;;;;;;;;;;;;;5.61;100.00;94291.72;10584015;27;2836;-69
2023/11/27 13:41:54;;;;;;;;;;;;;;;5.50;100.00;94276.84;10587951;27;2862;-70
2023/11/27 13:46:57;;;;;;;;;;;;;;;5.27;100.00;94275.66;10585425;27;4657;-71
2023/11/27 13:52:01;;;;;;;;;;;;;;;4.98;100.00;94255.09;10586987;27;2921;-70
2023/11/27 13:57:09;;;;;;;;;;;;;;;4.86;100.00;94239.44;10589992;27;2871;-73
2023/11/27 14:02:13;;;;;;;;;;;;;;;4.84;100.00;94235.47;10570831;27;3213;-70
2023/11/27 14:07:18;;;;;;;;;;;;;;;4.69;100.00;94215.03;10593034;27;2910;-71
2023/11/27 14:12:26;;;;;;;;;;;;;;;4.58;100.00;94205.50;10594701;27;2863;-69
2023/11/27 14:17:32;;;;;;;;;;;;;;;4.61;100.00;94200.44;10598041;27;2925;-70
2023/11/27 14:23:14;;;;;;;;;;;;;;;4.57;100.00;94190.59;10576315;27;3115;-70
2023/11/27 14:28:30;;;;;;;;;;;;;;;4.63;100.00;94173.53;10604522;27;2815;-72
2023/11/27 14:33:33;;;;;;;;;;;;;;;4.60;100.00;94166.13;10596307;27;2847;-78
2023/11/27 14:38:37;;;;;;;;;;;;;;;4.55;100.00;94155.50;10595957;27;2796;-75
2023/11/27 14:43:42;;;;;;;;;;;;;;;4.47;100.00;94148.09;10601070;27;3205;-75
2023/11/27 14:48:45;;;;;;;;;;;;;;;4.51;100.00;94133.16;10597194;27;2925;-70
2023/11/27 14:53:55;;;;;;;;;;;;;;;4.41;100.00;94119.94;10594622;27;2851;-70
2023/11/27 14:59:00;;;;;;;;;;;;;;;4.25;100.00;94125.31;10574582;27;2860;-71
2023/11/27 15:04:04;;;;;;;;;;;;;;;4.23;100.00;94132.78;10599513;27;2885;-70
2023/11/27 15:09:17;;;;;;;;;;;;;;;4.14;100.00;94113.16;10596866;27;2959;-71
2023/11/27 15:14:20;;;;;;;;;;;;;;;4.07;100.00;94089.53;10592225;27;2906;-69
2023/11/27 15:19:24;;;;;;;;;;;;;;;4.06;100.00;94095.09;10593798;27;2883;-73
2023/11/27 15:24:29;;;;;;;;;;;;;;;4.00;100.00;94080.25;10595619;27;2824;-73
2023/11/27 15:29:34;;;;;;;;;;;;;;;3.94;100.00;94068.03;10598549;27;2978;-70
2023/11/27 15:34:38;;;;;;;;;;;;;;;3.93;100.00;94061.94;10589745;27;2836;-68
2023/11/27 15:39:48;;;;;;;;;;;;;;;3.86;100.00;94050.00;10594377;27;2899;-69
2023/11/27 15:44:50;;;;;;;;;;;;;;;3.91;100.00;94042.03;10594724;27;2843;-68
2023/11/27 15:49:53;;;;;;;;;;;;;;;3.89;100.00;94025.56;10597380;27;2936;-70
2023/11/27 15:54:58;;;;;;;;;;;;;;;3.90;100.00;94013.84;10589124;27;2868;-69
2023/11/27 16:00:02;;;;;;;;;;;;;;;3.84;100.00;94004.31;10597644;27;3169;-69
2023/11/27 16:05:07;;;;;;;;;;;;;;;3.91;100.00;93997.63;10594963;27;2854;-69
2023/11/27 16:10:14;;;;;;;;;;;;;;;3.90;100.00;94000.56;10590690;27;2889;-77
2023/11/27 16:15:16;;;;;;;;;;;;;;;3.82;100.00;93986.00;10597749;27;2800;-69
2023/11/27 16:20:20;;;;;;;;;;;;;;;3.84;100.00;93977.72;10593716;27;2803;-72
2023/11/27 16:25:23;;;;;;;;;;;;;;;3.90;100.00;93968.66;10585129;27;3098;-75
2023/11/27 16:30:34;;;;;;;;;;;;;;;3.91;100.00;93956.97;10590768;27;3316;-74
2023/11/27 16:35:37;;;;;;;;;;;;;;;3.97;100.00;93946.00;10584989;27;2909;-73
2023/11/27 16:40:46;;;;;;;;;;;;;;;4.04;100.00;93940.38;10591857;27;2807;-71
2023/11/27 16:46:00;;;;;;;;;;;;;;;4.05;100.00;93939.31;10569478;27;2899;-73
2023/11/27 16:51:03;;;;;;;;;;;;;;;4.03;100.00;93933.47;10596529;27;2871;-72
2023/11/27 16:56:08;;;;;;;;;;;;;;;4.06;100.00;93930.25;10592811;27;2946;-72
2023/11/27 17:01:14;;;;;;;;;;;;;;;3.97;100.00;93926.59;10593100;27;3018;-70
2023/11/27 17:06:18;;;;;;;;;;;;;;;4.02;100.00;93934.56;10586223;27;2879;-73
2023/11/27 17:11:21;;;;;;;;;;;;;;;4.03;100.00;93920.19;10592257;27;2795;-72
2023/11/27 17:16:24;;;;;;;;;;;;;;;3.91;100.00;93922.41;10572685;27;2868;-68
2023/11/27 17:21:28;;;;;;;;;;;;;;;3.83;100.00;93923.00;10592367;27;2811;-69
2023/11/27 17:26:31;;;;;;;;;;;;;;;3.55;100.00;93913.84;10586799;27;2854;-69
2023/11/27 17:31:33;;;;;;;;;;;;;;;3.20;100.00;93916.44;10587408;27;3154;-73
2023/11/27 17:36:36;;;;;;;;;;;;;;;3.11;100.00;93925.22;10580626;27;2819;-72
2023/11/27 17:41:39;;;;;;;;;;;;;;;2.75;100.00;93932.53;10567347;27;3088;-68
2023/11/27 17:46:41;;;;;;;;;;;;;;;2.43;100.00;93920.38;10592432;27;4827;-69
2023/11/27 17:51:46;;;;;;;;;;;;;;;2.20;100.00;93931.53;10592315;27;2809;-69
2023/11/27 17:56:49;;;;;;;;;;;;;;;1.93;100.00;93926.50;10592206;27;2904;-69
2023/11/27 18:01:52;;;;;;;;;;;;;;;1.85;100.00;93925.97;10592428;27;2797;-69
2023/11/27 18:06:55;;;;;;;;;;;;;;;1.86;100.00;93913.53;10593782;27;2924;-69
2023/11/27 18:12:00;;;;;;;;;;;;;;;1.73;100.00;93914.84;10593914;27;3042;-69
2023/11/27 18:17:07;;;;;;;;;;;;;;;1.55;100.00;93904.75;10592491;27;2894;-70
2023/11/27 18:22:10;;;;;;;;;;;;;;;1.40;100.00;93896.75;10593711;27;2863;-72
2023/11/27 18:27:14;;;;;;;;;;;;;;;1.36;100.00;93891.22;10593705;27;2839;-68
2023/11/27 18:32:18;;;;;;;;;;;;;;;1.34;100.00;93888.03;10609517;27;1989;-73
2023/11/27 18:37:21;;;;;;;;;;;;;;;1.27;100.00;93887.47;10610420;27;2957;-72
2023/11/27 18:42:26;;;;;;;;;;;;;;;1.22;100.00;93880.34;10604460;27;2002;-69
2023/11/27 18:47:44;;;;;;;;;;;;;;;1.13;100.00;93867.88;10612154;27;4713;-68
2023/11/27 18:52:48;;;;;;;;;;;;;;;1.07;100.00;93872.34;10610715;27;2329;-69
2023/11/27 18:57:54;;;;;;;;;;;;;;;0.95;100.00;93858.56;10612845;27;1500;-69
2023/11/27 19:02:56;;;;;;;;;;;;;;;0.85;100.00;93848.75;10609804;27;1780;-67
2023/11/27 19:08:00;;;;;;;;;;;;;;;0.82;100.00;93841.31;10593491;27;2421;-68
2023/11/27 19:13:07;;;;;;;;;;;;;;;0.78;100.00;93842.91;10611278;27;1886;-75
2023/11/27 19:18:13;;;;;;;;;;;;;;;0.64;100.00;93836.53;10604992;27;1676;-71
2023/11/27 19:23:16;;;;;;;;;;;;;;;0.66;100.00;93827.25;10607885;27;1443;-68
2023/11/27 19:28:19;;;;;;;;;;;;;;;0.58;100.00;93808.47;10608901;27;1444;-68
2023/11/27 19:33:22;;;;;;;;;;;;;;;0.51;100.00;93804.22;10605824;27;1976;-68
2023/11/27 19:38:26;;;;;;;;;;;;;;;0.52;100.00;93787.28;10606546;27;2394;-69
2023/11/27 19:43:29;;;;;;;;;;;;;;;0.48;100.00;93780.13;10587965;27;4751;-72
2023/11/27 19:48:33;;;;;;;;;;;;;;;0.43;100.00;93777.47;10609525;27;1454;-72
2023/11/27 19:53:45;;;;;;;;;;;;;;;0.44;100.00;93763.19;10609564;27;1981;-70
2023/11/27 19:58:47;;;;;;;;;;;;;;;0.45;100.00;93764.81;10590537;27;1786;-70
2023/11/27 20:03:50;;;;;;;;;;;;;;;0.49;100.00;93761.38;10611474;27;1689;-70
2023/11/27 20:08:54;;;;;;;;;;;;;;;0.50;100.00;93754.22;10607619;27;1547;-71
2023/11/27 20:13:58;;;;;;;;;;;;;;;0.48;100.00;93746.56;10609292;27;1914;-72
2023/11/27 20:19:04;;;;;;;;;;;;;;;0.51;100.00;93739.97;10604625;27;1491;-71
2023/11/27 20:24:07;;;;;;;;;;;;;;;0.47;100.00;93726.47;10608452;27;1396;-71
2023/11/27 20:29:10;;;;;;;;;;;;;;;0.52;100.00;93721.19;10611779;27;1476;-72
2023/11/27 20:34:12;;;;;;;;;;;;;;;0.57;100.00;93719.59;10599686;27;2975;-72
2023/11/27 20:39:16;;;;;;;;;;;;;;;0.62;100.00;93709.84;10605798;27;1572;-72
2023/11/27 20:44:19;;;;;;;;;;;;;;;0.78;100.00;93703.53;10606961;27;4911;-72
2023/11/27 20:49:22;;;;;;;;;;;;;;;0.89;100.00;93700.88;10607589;27;1481;-70
2023/11/27 20:54:26;;;;;;;;;;;;;;;1.03;100.00;93686.88;10607910;27;1909;-71
2023/11/27 20:59:32;;;;;;;;;;;;;;;1.16;100.00;93669.66;10607438;27;1520;-69
2023/11/27 21:04:37;;;;;;;;;;;;;;;1.23;100.00;93680.00;10605944;27;1520;-68
2023/11/27 21:09:40;;;;;;;;;;;;;;;1.31;100.00;93671.50;10609062;27;1565;-68
2023/11/27 21:14:44;;;;;;;;;;;;;;;1.32;100.00;93667.78;10609855;27;1894;-68
2023/11/27 21:19:47;;;;;;;;;;;;;;;1.39;100.00;93657.72;10615104;27;1510;-69
2023/11/27 21:24:51;;;;;;;;;;;;;;;1.44;100.00;93657.72;10623433;27;1490;-76
2023/11/27 21:29:54;;;;;;;;;;;;;;;1.47;100.00;93664.34;10620291;27;1442;-69
2023/11/27 21:34:58;;;;;;;;;;;;;;;1.59;100.00;93652.41;10619457;27;1910;-68
2023/11/27 21:40:01;;;;;;;;;;;;;;;1.67;100.00;93645.75;10621732;27;1637;-68
2023/11/27 21:45:04;;;;;;;;;;;;;;;1.70;100.00;93639.09;10626154;27;1678;-68
2023/11/27 21:50:07;;;;;;;;;;;;;;;1.79;100.00;93645.44;10621004;27;2453;-71
2023/11/27 21:55:11;;;;;;;;;;;;;;;1.82;100.00;93640.38;10618077;27;1913;-69
2023/11/27 22:00:13;;;;;;;;;;;;;;;1.80;100.00;93634.56;10602099;27;1505;-69
2023/11/27 22:05:17;;;;;;;;;;;;;;;1.90;100.00;93639.03;10621882;27;1585;-69
2023/11/27 22:10:20;;;;;;;;;;;;;;;1.88;100.00;93639.28;10619404;27;1519;-69
2023/11/27 22:15:23;;;;;;;;;;;;;;;1.94;100.00;93629.47;10616874;27;1990;-73
2023/11/27 22:20:27;;;;;;;;;;;;;;;2.01;100.00;93626.53;10615904;27;1497;-72
2023/11/27 22:25:30;;;;;;;;;;;;;;;2.03;100.00;93627.81;10616604;27;1457;-69
2023/11/27 22:30:33;;;;;;;;;;;;;;;2.05;100.00;93622.28;10615333;27;1474;-69
2023/11/27 22:35:37;;;;;;;;;;;;;;;2.06;100.00;93603.44;10616377;27;1921;-69
2023/11/27 22:40:40;;;;;;;;;;;;;;;2.15;100.00;93607.09;10611410;27;1826;-69
2023/11/27 22:45:44;;;;;;;;;;;;;;;2.22;100.00;93606.78;10612962;27;4721;-68
2023/11/27 22:50:46;;;;;;;;;;;;;;;2.16;100.00;93600.75;10614435;27;1531;-69
2023/11/27 22:55:49;;;;;;;;;;;;;;;2.16;100.00;93591.97;10612083;27;1910;-74
2023/11/27 23:00:52;;;;;;;;;;;;;;;2.13;100.00;93588.03;10615498;27;1477;-72
2023/11/27 23:05:55;;;;;;;;;;;;;;;2.08;100.00;93585.41;10604310;27;2811;-68
2023/11/27 23:10:59;;;;;;;;;;;;;;;2.04;100.00;93571.13;10603830;27;2937;-69
2023/11/27 23:16:02;;;;;;;;;;;;;;;2.10;100.00;93561.28;10599323;27;2832;-68
2023/11/27 23:21:04;;;;;;;;;;;;;;;2.07;100.00;93559.19;10592911;27;2955;-69
2023/11/27 23:26:07;;;;;;;;;;;;;;;2.15;100.00;93559.38;10598659;27;3215;-70
2023/11/27 23:31:10;;;;;;;;;;;;;;;2.05;100.00;93543.56;10587919;27;2784;-69
2023/11/27 23:36:12;;;;;;;;;;;;;;;2.01;100.00;93529.28;10593082;27;2910;-69
2023/11/27 23:41:16;;;;;;;;;;;;;;;2.01;100.00;93529.28;10596740;27;2806;-68
2023/11/27 23:46:20;;;;;;;;;;;;;;;2.06;100.00;93513.34;10595600;27;3130;-68
2023/11/27 23:51:23;;;;;;;;;;;;;;;2.09;100.00;93520.72;10590927;27;2993;-71
2023/11/27 23:56:26;;;;;;;;;;;;;;;2.05;100.00;93509.13;10590974;27;2934;-70
